KGZN

Gregory M Simmons Memorial Airport

Cisco, Texas, USA
METAR KGZN 150020Z AUTO 18016KT 10SM CLR 31/17 A2991 RMK AO2
Observed Flight Rules
Aug-15 @ 00:20 UTC (44 minutes ago) Visual Flight Rules
Wind Visibility Clouds
180° at 16 knots 10 miles
  • Clear skies
Temperatures Readings
Current 31°C / 88°F
Dewpoint 17°C / 63°F
Humidity 43%
Altimeter 29.91" Hg
Pressure 1013 hPa
Elevation 522
METAR KGZN 150020Z AUTO 18016KT 10SM CLR 31/17 A2991 RMK AO2
Observed Flight Rules
Aug-15 @ 00:20 UTC
(44 minutes ago)
VFR
Wind Visibility
180° at 16 knots 10 miles
Clouds
  • Clear skies
Temperature Dewpoint
31°C / 88°F 17°C / 63°F
Humidity Altimeter Pressure
43% 29.91" Hg 1013 hPa